sensor_id;sensor_type;location;lat;lon;timestamp;P1;durP1;ratioP1;P2;durP2;ratioP2
54919;SDS011;63804;53.120;8.764;2023-07-09T00:02:24;9.38;;;5.60;;
54919;SDS011;63804;53.120;8.764;2023-07-09T00:04:53;9.80;;;5.80;;
54919;SDS011;63804;53.120;8.764;2023-07-09T00:07:24;8.95;;;5.85;;
54919;SDS011;63804;53.120;8.764;2023-07-09T00:09:59;9.13;;;5.68;;
54919;SDS011;63804;53.120;8.764;2023-07-09T00:12:27;8.73;;;5.88;;
54919;SDS011;63804;53.120;8.764;2023-07-09T00:14:54;9.93;;;5.75;;
54919;SDS011;63804;53.120;8.764;2023-07-09T00:17:28;9.07;;;5.30;;
54919;SDS011;63804;53.120;8.764;2023-07-09T00:19:57;8.38;;;5.43;;
54919;SDS011;63804;53.120;8.764;2023-07-09T00:22:25;10.27;;;5.47;;
54919;SDS011;63804;53.120;8.764;2023-07-09T00:24:54;9.77;;;5.43;;
54919;SDS011;63804;53.120;8.764;2023-07-09T00:27:25;9.13;;;5.75;;
54919;SDS011;63804;53.120;8.764;2023-07-09T00:29:55;9.88;;;5.40;;
54919;SDS011;63804;53.120;8.764;2023-07-09T00:32:23;9.70;;;5.93;;
54919;SDS011;63804;53.120;8.764;2023-07-09T00:34:51;9.68;;;5.60;;
54919;SDS011;63804;53.120;8.764;2023-07-09T00:37:21;9.65;;;5.30;;
54919;SDS011;63804;53.120;8.764;2023-07-09T00:39:54;8.85;;;5.25;;
54919;SDS011;63804;53.120;8.764;2023-07-09T00:42:22;9.05;;;5.25;;
54919;SDS011;63804;53.120;8.764;2023-07-09T00:44:51;11.43;;;6.20;;
54919;SDS011;63804;53.120;8.764;2023-07-09T00:50:16;11.00;;;6.10;;
54919;SDS011;63804;53.120;8.764;2023-07-09T00:53:22;9.93;;;6.05;;
54919;SDS011;63804;53.120;8.764;2023-07-09T00:55:54;9.77;;;6.30;;
54919;SDS011;63804;53.120;8.764;2023-07-09T00:58:27;11.75;;;6.20;;
54919;SDS011;63804;53.120;8.764;2023-07-09T01:00:56;12.32;;;6.25;;
54919;SDS011;63804;53.120;8.764;2023-07-09T01:03:48;9.45;;;6.13;;
54919;SDS011;63804;53.120;8.764;2023-07-09T01:06:34;9.10;;;6.15;;
54919;SDS011;63804;53.120;8.764;2023-07-09T01:09:05;10.63;;;6.40;;
54919;SDS011;63804;53.120;8.764;2023-07-09T01:11:34;10.40;;;5.97;;
54919;SDS011;63804;53.120;8.764;2023-07-09T01:14:06;11.32;;;6.35;;
54919;SDS011;63804;53.120;8.764;2023-07-09T01:16:36;12.00;;;6.60;;
54919;SDS011;63804;53.120;8.764;2023-07-09T01:19:06;10.02;;;6.18;;
54919;SDS011;63804;53.120;8.764;2023-07-09T01:21:33;9.20;;;6.18;;
54919;SDS011;63804;53.120;8.764;2023-07-09T01:24:14;10.50;;;6.10;;
54919;SDS011;63804;53.120;8.764;2023-07-09T01:26:46;14.10;;;6.68;;
54919;SDS011;63804;53.120;8.764;2023-07-09T01:29:13;9.52;;;6.10;;
54919;SDS011;63804;53.120;8.764;2023-07-09T01:31:41;9.93;;;6.05;;
54919;SDS011;63804;53.120;8.764;2023-07-09T01:34:08;9.88;;;6.47;;
54919;SDS011;63804;53.120;8.764;2023-07-09T01:36:35;9.45;;;6.50;;
54919;SDS011;63804;53.120;8.764;2023-07-09T01:39:06;12.23;;;6.78;;
54919;SDS011;63804;53.120;8.764;2023-07-09T01:41:34;10.57;;;5.95;;
54919;SDS011;63804;53.120;8.764;2023-07-09T01:44:01;8.75;;;6.05;;
54919;SDS011;63804;53.120;8.764;2023-07-09T01:46:28;9.70;;;6.18;;
54919;SDS011;63804;53.120;8.764;2023-07-09T01:48:57;9.13;;;6.30;;
54919;SDS011;63804;53.120;8.764;2023-07-09T01:51:24;9.85;;;6.28;;
54919;SDS011;63804;53.120;8.764;2023-07-09T01:53:54;11.70;;;6.63;;
54919;SDS011;63804;53.120;8.764;2023-07-09T01:56:21;11.00;;;6.07;;
54919;SDS011;63804;53.120;8.764;2023-07-09T01:58:51;10.80;;;6.80;;
54919;SDS011;63804;53.120;8.764;2023-07-09T02:01:18;11.48;;;6.03;;
54919;SDS011;63804;53.120;8.764;2023-07-09T02:03:46;13.30;;;6.28;;
54919;SDS011;63804;53.120;8.764;2023-07-09T02:06:14;11.05;;;7.40;;
54919;SDS011;63804;53.120;8.764;2023-07-09T02:08:41;11.52;;;7.20;;
54919;SDS011;63804;53.120;8.764;2023-07-09T02:11:08;11.00;;;6.70;;
54919;SDS011;63804;53.120;8.764;2023-07-09T02:13:35;11.60;;;6.63;;
54919;SDS011;63804;53.120;8.764;2023-07-09T02:16:02;11.43;;;6.25;;
54919;SDS011;63804;53.120;8.764;2023-07-09T02:18:30;11.60;;;6.35;;
54919;SDS011;63804;53.120;8.764;2023-07-09T02:20:57;11.07;;;6.53;;
54919;SDS011;63804;53.120;8.764;2023-07-09T02:23:27;9.77;;;6.05;;
54919;SDS011;63804;53.120;8.764;2023-07-09T02:25:55;13.05;;;6.40;;
54919;SDS011;63804;53.120;8.764;2023-07-09T02:28:23;11.63;;;6.32;;
54919;SDS011;63804;53.120;8.764;2023-07-09T02:30:50;11.40;;;6.45;;
54919;SDS011;63804;53.120;8.764;2023-07-09T02:33:17;11.30;;;6.80;;
54919;SDS011;63804;53.120;8.764;2023-07-09T02:35:47;11.75;;;6.60;;
54919;SDS011;63804;53.120;8.764;2023-07-09T02:38:14;11.48;;;6.90;;
54919;SDS011;63804;53.120;8.764;2023-07-09T02:40:41;11.45;;;6.75;;
54919;SDS011;63804;53.120;8.764;2023-07-09T02:43:09;10.25;;;6.93;;
54919;SDS011;63804;53.120;8.764;2023-07-09T02:45:36;11.95;;;7.93;;
54919;SDS011;63804;53.120;8.764;2023-07-09T02:48:03;12.82;;;6.68;;
54919;SDS011;63804;53.120;8.764;2023-07-09T02:50:31;12.23;;;6.97;;
54919;SDS011;63804;53.120;8.764;2023-07-09T02:52:58;11.02;;;6.68;;
54919;SDS011;63804;53.120;8.764;2023-07-09T02:55:25;10.38;;;7.00;;
54919;SDS011;63804;53.120;8.764;2023-07-09T02:57:53;8.95;;;6.10;;
54919;SDS011;63804;53.120;8.764;2023-07-09T03:00:20;10.80;;;6.25;;
54919;SDS011;63804;53.120;8.764;2023-07-09T03:02:47;10.45;;;6.35;;
54919;SDS011;63804;53.120;8.764;2023-07-09T03:05:15;12.90;;;6.43;;
54919;SDS011;63804;53.120;8.764;2023-07-09T03:07:42;10.88;;;5.90;;
54919;SDS011;63804;53.120;8.764;2023-07-09T03:10:09;10.80;;;6.22;;
54919;SDS011;63804;53.120;8.764;2023-07-09T03:12:36;11.13;;;6.63;;
54919;SDS011;63804;53.120;8.764;2023-07-09T03:15:04;8.98;;;6.43;;
54919;SDS011;63804;53.120;8.764;2023-07-09T03:17:31;10.40;;;7.07;;
54919;SDS011;63804;53.120;8.764;2023-07-09T03:19:59;9.27;;;6.25;;
54919;SDS011;63804;53.120;8.764;2023-07-09T03:22:26;8.82;;;6.13;;
54919;SDS011;63804;53.120;8.764;2023-07-09T03:24:53;10.93;;;6.10;;
54919;SDS011;63804;53.120;8.764;2023-07-09T03:27:21;10.05;;;6.57;;
54919;SDS011;63804;53.120;8.764;2023-07-09T03:29:48;9.93;;;6.10;;
54919;SDS011;63804;53.120;8.764;2023-07-09T03:32:15;11.02;;;6.47;;
54919;SDS011;63804;53.120;8.764;2023-07-09T03:34:42;9.20;;;6.45;;
54919;SDS011;63804;53.120;8.764;2023-07-09T03:37:10;9.57;;;6.32;;
54919;SDS011;63804;53.120;8.764;2023-07-09T03:39:37;11.13;;;6.35;;
54919;SDS011;63804;53.120;8.764;2023-07-09T03:42:04;9.82;;;6.10;;
54919;SDS011;63804;53.120;8.764;2023-07-09T03:44:32;11.57;;;6.85;;
54919;SDS011;63804;53.120;8.764;2023-07-09T03:46:59;11.43;;;6.43;;
54919;SDS011;63804;53.120;8.764;2023-07-09T03:49:26;8.73;;;6.00;;
54919;SDS011;63804;53.120;8.764;2023-07-09T03:51:54;7.85;;;5.75;;
54919;SDS011;63804;53.120;8.764;2023-07-09T03:54:21;9.85;;;5.63;;
54919;SDS011;63804;53.120;8.764;2023-07-09T03:56:53;9.98;;;5.72;;
54919;SDS011;63804;53.120;8.764;2023-07-09T03:59:20;10.52;;;5.90;;
54919;SDS011;63804;53.120;8.764;2023-07-09T04:01:51;9.55;;;6.07;;
54919;SDS011;63804;53.120;8.764;2023-07-09T04:04:18;9.90;;;6.10;;
54919;SDS011;63804;53.120;8.764;2023-07-09T04:06:47;9.38;;;5.93;;
54919;SDS011;63804;53.120;8.764;2023-07-09T04:09:15;10.05;;;5.50;;
54919;SDS011;63804;53.120;8.764;2023-07-09T04:11:42;14.68;;;6.38;;
54919;SDS011;63804;53.120;8.764;2023-07-09T04:14:09;9.95;;;5.22;;
54919;SDS011;63804;53.120;8.764;2023-07-09T04:16:37;10.07;;;6.35;;
54919;SDS011;63804;53.120;8.764;2023-07-09T04:19:09;9.52;;;6.38;;
54919;SDS011;63804;53.120;8.764;2023-07-09T04:21:37;10.00;;;6.43;;
54919;SDS011;63804;53.120;8.764;2023-07-09T04:24:04;9.82;;;6.40;;
54919;SDS011;63804;53.120;8.764;2023-07-09T04:26:32;9.52;;;6.10;;
54919;SDS011;63804;53.120;8.764;2023-07-09T04:28:59;8.82;;;5.75;;
54919;SDS011;63804;53.120;8.764;2023-07-09T04:31:27;8.77;;;5.80;;
54919;SDS011;63804;53.120;8.764;2023-07-09T04:33:54;8.27;;;5.80;;
54919;SDS011;63804;53.120;8.764;2023-07-09T04:36:21;8.18;;;5.75;;
54919;SDS011;63804;53.120;8.764;2023-07-09T04:38:48;9.77;;;6.40;;
54919;SDS011;63804;53.120;8.764;2023-07-09T04:41:16;11.00;;;6.07;;
54919;SDS011;63804;53.120;8.764;2023-07-09T04:43:43;9.32;;;6.40;;
54919;SDS011;63804;53.120;8.764;2023-07-09T04:46:10;10.70;;;6.20;;
54919;SDS011;63804;53.120;8.764;2023-07-09T04:48:38;9.80;;;5.80;;
54919;SDS011;63804;53.120;8.764;2023-07-09T04:51:06;9.38;;;6.22;;
54919;SDS011;63804;53.120;8.764;2023-07-09T04:53:33;9.50;;;5.82;;
54919;SDS011;63804;53.120;8.764;2023-07-09T04:56:03;8.20;;;6.25;;
54919;SDS011;63804;53.120;8.764;2023-07-09T04:58:31;10.10;;;6.15;;
54919;SDS011;63804;53.120;8.764;2023-07-09T05:00:59;11.43;;;6.38;;
54919;SDS011;63804;53.120;8.764;2023-07-09T05:03:27;9.52;;;6.55;;
54919;SDS011;63804;53.120;8.764;2023-07-09T05:05:54;9.63;;;5.95;;
54919;SDS011;63804;53.120;8.764;2023-07-09T05:08:22;8.52;;;5.68;;
54919;SDS011;63804;53.120;8.764;2023-07-09T05:10:51;7.85;;;5.90;;
54919;SDS011;63804;53.120;8.764;2023-07-09T05:13:19;8.70;;;5.90;;
54919;SDS011;63804;53.120;8.764;2023-07-09T05:15:47;9.40;;;5.82;;
54919;SDS011;63804;53.120;8.764;2023-07-09T05:18:17;7.85;;;5.47;;
54919;SDS011;63804;53.120;8.764;2023-07-09T05:20:45;10.82;;;5.78;;
54919;SDS011;63804;53.120;8.764;2023-07-09T05:23:15;9.30;;;5.72;;
54919;SDS011;63804;53.120;8.764;2023-07-09T05:25:42;8.68;;;5.68;;
54919;SDS011;63804;53.120;8.764;2023-07-09T05:28:10;9.15;;;5.70;;
54919;SDS011;63804;53.120;8.764;2023-07-09T05:30:39;9.48;;;5.72;;
54919;SDS011;63804;53.120;8.764;2023-07-09T05:33:08;10.30;;;5.50;;
54919;SDS011;63804;53.120;8.764;2023-07-09T05:35:35;8.60;;;5.60;;
54919;SDS011;63804;53.120;8.764;2023-07-09T05:38:02;9.02;;;6.22;;
54919;SDS011;63804;53.120;8.764;2023-07-09T05:40:30;8.57;;;5.78;;
54919;SDS011;63804;53.120;8.764;2023-07-09T05:42:57;11.27;;;5.68;;
54919;SDS011;63804;53.120;8.764;2023-07-09T05:45:24;8.00;;;5.38;;
54919;SDS011;63804;53.120;8.764;2023-07-09T05:47:52;8.90;;;5.07;;
54919;SDS011;63804;53.120;8.764;2023-07-09T05:50:19;8.25;;;5.57;;
54919;SDS011;63804;53.120;8.764;2023-07-09T05:52:47;7.50;;;5.15;;
54919;SDS011;63804;53.120;8.764;2023-07-09T05:55:14;8.63;;;5.90;;
54919;SDS011;63804;53.120;8.764;2023-07-09T05:57:44;8.18;;;4.88;;
54919;SDS011;63804;53.120;8.764;2023-07-09T06:00:12;8.75;;;5.38;;
54919;SDS011;63804;53.120;8.764;2023-07-09T06:02:40;7.35;;;5.13;;
54919;SDS011;63804;53.120;8.764;2023-07-09T06:05:07;9.52;;;6.13;;
54919;SDS011;63804;53.120;8.764;2023-07-09T06:07:38;10.23;;;5.50;;
54919;SDS011;63804;53.120;8.764;2023-07-09T06:10:06;9.05;;;5.53;;
54919;SDS011;63804;53.120;8.764;2023-07-09T06:12:35;12.05;;;5.75;;
54919;SDS011;63804;53.120;8.764;2023-07-09T06:15:03;9.82;;;5.22;;
54919;SDS011;63804;53.120;8.764;2023-07-09T06:17:30;8.20;;;4.88;;
54919;SDS011;63804;53.120;8.764;2023-07-09T06:19:58;7.40;;;4.70;;
54919;SDS011;63804;53.120;8.764;2023-07-09T06:22:28;7.18;;;5.00;;
54919;SDS011;63804;53.120;8.764;2023-07-09T06:24:55;7.38;;;5.18;;
54919;SDS011;63804;53.120;8.764;2023-07-09T06:27:23;9.27;;;4.97;;
54919;SDS011;63804;53.120;8.764;2023-07-09T06:29:53;7.55;;;5.28;;
54919;SDS011;63804;53.120;8.764;2023-07-09T06:32:21;9.68;;;5.95;;
54919;SDS011;63804;53.120;8.764;2023-07-09T06:34:48;9.23;;;5.13;;
54919;SDS011;63804;53.120;8.764;2023-07-09T06:37:15;8.07;;;5.20;;
54919;SDS011;63804;53.120;8.764;2023-07-09T06:39:43;9.52;;;5.30;;
54919;SDS011;63804;53.120;8.764;2023-07-09T06:42:10;7.53;;;5.10;;
54919;SDS011;63804;53.120;8.764;2023-07-09T06:44:37;7.43;;;4.68;;
54919;SDS011;63804;53.120;8.764;2023-07-09T06:47:05;7.07;;;4.60;;
54919;SDS011;63804;53.120;8.764;2023-07-09T06:49:32;6.60;;;4.68;;
54919;SDS011;63804;53.120;8.764;2023-07-09T06:51:59;8.70;;;5.22;;
54919;SDS011;63804;53.120;8.764;2023-07-09T06:54:27;7.53;;;4.75;;
54919;SDS011;63804;53.120;8.764;2023-07-09T06:56:54;7.78;;;4.93;;
54919;SDS011;63804;53.120;8.764;2023-07-09T06:59:21;7.63;;;5.40;;
54919;SDS011;63804;53.120;8.764;2023-07-09T07:01:49;8.82;;;5.10;;
54919;SDS011;63804;53.120;8.764;2023-07-09T07:04:16;9.15;;;4.70;;
54919;SDS011;63804;53.120;8.764;2023-07-09T07:06:44;6.65;;;4.43;;
54919;SDS011;63804;53.120;8.764;2023-07-09T07:09:16;8.75;;;4.70;;
54919;SDS011;63804;53.120;8.764;2023-07-09T07:11:44;7.03;;;4.40;;
54919;SDS011;63804;53.120;8.764;2023-07-09T07:14:11;7.03;;;4.63;;
54919;SDS011;63804;53.120;8.764;2023-07-09T07:16:38;7.05;;;4.68;;
54919;SDS011;63804;53.120;8.764;2023-07-09T07:19:06;8.35;;;4.90;;
54919;SDS011;63804;53.120;8.764;2023-07-09T07:21:33;8.82;;;4.50;;
54919;SDS011;63804;53.120;8.764;2023-07-09T07:24:01;8.55;;;4.53;;
54919;SDS011;63804;53.120;8.764;2023-07-09T07:26:29;7.25;;;4.68;;
54919;SDS011;63804;53.120;8.764;2023-07-09T07:28:57;7.10;;;4.82;;
54919;SDS011;63804;53.120;8.764;2023-07-09T07:31:24;8.85;;;5.03;;
54919;SDS011;63804;53.120;8.764;2023-07-09T07:33:52;10.82;;;4.97;;
54919;SDS011;63804;53.120;8.764;2023-07-09T07:36:19;7.90;;;4.70;;
54919;SDS011;63804;53.120;8.764;2023-07-09T07:38:56;10.13;;;5.15;;
54919;SDS011;63804;53.120;8.764;2023-07-09T07:41:24;8.10;;;4.80;;
54919;SDS011;63804;53.120;8.764;2023-07-09T07:43:52;9.65;;;4.50;;
54919;SDS011;63804;53.120;8.764;2023-07-09T07:46:19;7.25;;;4.90;;
54919;SDS011;63804;53.120;8.764;2023-07-09T07:48:47;7.80;;;4.80;;
54919;SDS011;63804;53.120;8.764;2023-07-09T07:51:14;7.05;;;4.57;;
54919;SDS011;63804;53.120;8.764;2023-07-09T07:53:42;6.90;;;4.40;;
54919;SDS011;63804;53.120;8.764;2023-07-09T07:56:09;7.57;;;5.05;;
54919;SDS011;63804;53.120;8.764;2023-07-09T07:58:37;7.28;;;4.90;;
54919;SDS011;63804;53.120;8.764;2023-07-09T08:01:04;7.63;;;4.78;;
54919;SDS011;63804;53.120;8.764;2023-07-09T08:03:32;6.68;;;4.50;;
54919;SDS011;63804;53.120;8.764;2023-07-09T08:05:59;9.02;;;4.80;;
54919;SDS011;63804;53.120;8.764;2023-07-09T08:08:28;8.32;;;4.75;;
54919;SDS011;63804;53.120;8.764;2023-07-09T08:11:00;7.85;;;4.68;;
54919;SDS011;63804;53.120;8.764;2023-07-09T08:13:35;7.18;;;4.47;;
54919;SDS011;63804;53.120;8.764;2023-07-09T08:16:04;7.95;;;4.57;;
54919;SDS011;63804;53.120;8.764;2023-07-09T08:18:33;7.97;;;4.45;;
54919;SDS011;63804;53.120;8.764;2023-07-09T08:21:01;8.45;;;5.05;;
54919;SDS011;63804;53.120;8.764;2023-07-09T08:23:28;9.85;;;5.45;;
54919;SDS011;63804;53.120;8.764;2023-07-09T08:25:56;7.53;;;4.30;;
54919;SDS011;63804;53.120;8.764;2023-07-09T08:28:25;9.02;;;4.43;;
54919;SDS011;63804;53.120;8.764;2023-07-09T08:30:52;8.85;;;4.88;;
54919;SDS011;63804;53.120;8.764;2023-07-09T08:33:20;8.50;;;4.95;;
54919;SDS011;63804;53.120;8.764;2023-07-09T08:35:49;8.80;;;4.25;;
54919;SDS011;63804;53.120;8.764;2023-07-09T08:38:18;6.80;;;4.72;;
54919;SDS011;63804;53.120;8.764;2023-07-09T08:41:37;8.90;;;4.95;;
54919;SDS011;63804;53.120;8.764;2023-07-09T08:46:57;8.65;;;4.80;;
54919;SDS011;63804;53.120;8.764;2023-07-09T08:52:39;9.55;;;4.70;;
54919;SDS011;63804;53.120;8.764;2023-07-09T08:55:12;7.70;;;4.80;;
54919;SDS011;63804;53.120;8.764;2023-07-09T08:57:44;9.10;;;4.63;;
54919;SDS011;63804;53.120;8.764;2023-07-09T09:00:16;7.43;;;4.68;;
54919;SDS011;63804;53.120;8.764;2023-07-09T09:02:54;8.82;;;4.82;;
54919;SDS011;63804;53.120;8.764;2023-07-09T09:05:25;10.10;;;5.25;;
54919;SDS011;63804;53.120;8.764;2023-07-09T09:07:57;7.78;;;4.63;;
54919;SDS011;63804;53.120;8.764;2023-07-09T09:10:39;7.88;;;4.60;;
54919;SDS011;63804;53.120;8.764;2023-07-09T09:13:20;7.22;;;4.80;;
54919;SDS011;63804;53.120;8.764;2023-07-09T09:15:52;7.78;;;4.35;;
54919;SDS011;63804;53.120;8.764;2023-07-09T09:18:25;8.23;;;4.57;;
54919;SDS011;63804;53.120;8.764;2023-07-09T09:21:06;7.28;;;4.40;;
54919;SDS011;63804;53.120;8.764;2023-07-09T09:23:41;9.10;;;4.95;;
54919;SDS011;63804;53.120;8.764;2023-07-09T09:26:17;8.85;;;4.68;;
54919;SDS011;63804;53.120;8.764;2023-07-09T09:28:50;7.85;;;4.75;;
54919;SDS011;63804;53.120;8.764;2023-07-09T09:31:18;7.63;;;4.32;;
54919;SDS011;63804;53.120;8.764;2023-07-09T09:33:46;7.97;;;4.68;;
54919;SDS011;63804;53.120;8.764;2023-07-09T09:36:16;7.18;;;4.90;;
54919;SDS011;63804;53.120;8.764;2023-07-09T09:38:44;7.55;;;4.90;;
54919;SDS011;63804;53.120;8.764;2023-07-09T09:41:13;8.68;;;4.88;;
54919;SDS011;63804;53.120;8.764;2023-07-09T09:43:45;8.45;;;4.85;;
54919;SDS011;63804;53.120;8.764;2023-07-09T09:46:17;8.93;;;4.50;;
54919;SDS011;63804;53.120;8.764;2023-07-09T09:48:47;7.07;;;4.60;;
54919;SDS011;63804;53.120;8.764;2023-07-09T09:51:17;6.50;;;4.15;;
54919;SDS011;63804;53.120;8.764;2023-07-09T09:53:47;8.88;;;4.60;;
54919;SDS011;63804;53.120;8.764;2023-07-09T09:56:18;8.10;;;5.00;;
54919;SDS011;63804;53.120;8.764;2023-07-09T09:58:52;7.65;;;4.40;;
54919;SDS011;63804;53.120;8.764;2023-07-09T10:01:28;9.30;;;4.63;;
54919;SDS011;63804;53.120;8.764;2023-07-09T10:04:03;8.40;;;5.00;;
54919;SDS011;63804;53.120;8.764;2023-07-09T10:17:39;7.43;;;4.65;;
54919;SDS011;63804;53.120;8.764;2023-07-09T10:20:34;7.15;;;4.75;;
54919;SDS011;63804;53.120;8.764;2023-07-09T10:23:24;7.57;;;4.90;;
54919;SDS011;63804;53.120;8.764;2023-07-09T10:26:09;9.98;;;6.45;;
54919;SDS011;63804;53.120;8.764;2023-07-09T10:31:26;8.18;;;5.22;;
54919;SDS011;63804;53.120;8.764;2023-07-09T10:39:47;8.00;;;5.00;;
54919;SDS011;63804;53.120;8.764;2023-07-09T10:42:27;9.82;;;5.03;;
54919;SDS011;63804;53.120;8.764;2023-07-09T10:44:58;10.88;;;5.72;;
54919;SDS011;63804;53.120;8.764;2023-07-09T10:47:31;8.38;;;5.28;;
54919;SDS011;63804;53.120;8.764;2023-07-09T10:50:05;8.50;;;4.80;;
54919;SDS011;63804;53.120;8.764;2023-07-09T10:52:39;9.48;;;5.07;;
54919;SDS011;63804;53.120;8.764;2023-07-09T10:55:16;7.88;;;4.90;;
54919;SDS011;63804;53.120;8.764;2023-07-09T10:57:51;8.68;;;4.80;;
54919;SDS011;63804;53.120;8.764;2023-07-09T11:00:27;9.68;;;5.10;;
54919;SDS011;63804;53.120;8.764;2023-07-09T11:03:14;8.30;;;4.95;;
54919;SDS011;63804;53.120;8.764;2023-07-09T11:05:42;10.57;;;4.88;;
54919;SDS011;63804;53.120;8.764;2023-07-09T11:08:15;10.32;;;5.38;;
54919;SDS011;63804;53.120;8.764;2023-07-09T11:10:50;7.97;;;5.22;;
54919;SDS011;63804;53.120;8.764;2023-07-09T11:13:28;7.00;;;4.70;;
54919;SDS011;63804;53.120;8.764;2023-07-09T11:16:28;8.45;;;4.78;;
54919;SDS011;63804;53.120;8.764;2023-07-09T11:19:00;8.77;;;5.07;;
54919;SDS011;63804;53.120;8.764;2023-07-09T11:21:30;7.97;;;5.10;;
54919;SDS011;63804;53.120;8.764;2023-07-09T11:23:58;7.40;;;5.10;;
54919;SDS011;63804;53.120;8.764;2023-07-09T11:26:31;8.70;;;4.70;;
54919;SDS011;63804;53.120;8.764;2023-07-09T11:31:35;7.47;;;4.55;;
54919;SDS011;63804;53.120;8.764;2023-07-09T11:34:10;8.45;;;5.00;;
54919;SDS011;63804;53.120;8.764;2023-07-09T11:39:44;7.68;;;5.05;;
54919;SDS011;63804;53.120;8.764;2023-07-09T11:42:24;9.27;;;4.88;;
54919;SDS011;63804;53.120;8.764;2023-07-09T11:45:02;8.38;;;4.90;;
54919;SDS011;63804;53.120;8.764;2023-07-09T11:48:23;8.20;;;5.30;;
54919;SDS011;63804;53.120;8.764;2023-07-09T11:58:09;8.10;;;5.00;;
54919;SDS011;63804;53.120;8.764;2023-07-09T12:00:39;8.65;;;5.07;;
54919;SDS011;63804;53.120;8.764;2023-07-09T12:03:14;8.85;;;4.40;;
54919;SDS011;63804;53.120;8.764;2023-07-09T12:05:56;10.07;;;4.68;;
54919;SDS011;63804;53.120;8.764;2023-07-09T12:08:27;10.20;;;4.60;;
54919;SDS011;63804;53.120;8.764;2023-07-09T12:10:59;7.13;;;4.38;;
54919;SDS011;63804;53.120;8.764;2023-07-09T12:13:28;7.57;;;4.30;;
54919;SDS011;63804;53.120;8.764;2023-07-09T12:15:55;10.48;;;5.05;;
54919;SDS011;63804;53.120;8.764;2023-07-09T12:18:22;9.02;;;4.55;;
54919;SDS011;63804;53.120;8.764;2023-07-09T12:20:50;8.60;;;4.90;;
54919;SDS011;63804;53.120;8.764;2023-07-09T12:23:30;7.28;;;4.85;;
54919;SDS011;63804;53.120;8.764;2023-07-09T12:25:59;9.25;;;4.97;;
54919;SDS011;63804;53.120;8.764;2023-07-09T12:28:28;9.57;;;5.05;;
54919;SDS011;63804;53.120;8.764;2023-07-09T12:30:57;7.80;;;4.93;;
54919;SDS011;63804;53.120;8.764;2023-07-09T12:33:25;7.20;;;4.60;;
54919;SDS011;63804;53.120;8.764;2023-07-09T12:35:58;6.78;;;4.50;;
54919;SDS011;63804;53.120;8.764;2023-07-09T12:38:28;8.10;;;5.03;;
54919;SDS011;63804;53.120;8.764;2023-07-09T12:40:59;7.95;;;4.78;;
54919;SDS011;63804;53.120;8.764;2023-07-09T12:43:28;8.63;;;4.65;;
54919;SDS011;63804;53.120;8.764;2023-07-09T12:45:58;8.57;;;4.63;;
54919;SDS011;63804;53.120;8.764;2023-07-09T12:48:27;9.27;;;5.05;;
54919;SDS011;63804;53.120;8.764;2023-07-09T12:50:57;10.02;;;5.38;;
54919;SDS011;63804;53.120;8.764;2023-07-09T12:53:26;9.55;;;5.50;;
54919;SDS011;63804;53.120;8.764;2023-07-09T12:55:56;8.45;;;4.93;;
54919;SDS011;63804;53.120;8.764;2023-07-09T12:58:30;8.95;;;4.85;;
54919;SDS011;63804;53.120;8.764;2023-07-09T13:01:00;7.63;;;4.63;;
54919;SDS011;63804;53.120;8.764;2023-07-09T13:03:34;9.45;;;4.82;;
54919;SDS011;63804;53.120;8.764;2023-07-09T13:06:03;9.68;;;5.20;;
54919;SDS011;63804;53.120;8.764;2023-07-09T13:08:39;9.40;;;4.55;;
54919;SDS011;63804;53.120;8.764;2023-07-09T13:11:15;7.88;;;4.88;;
54919;SDS011;63804;53.120;8.764;2023-07-09T13:13:57;9.27;;;4.65;;
54919;SDS011;63804;53.120;8.764;2023-07-09T13:18:54;7.70;;;4.93;;
54919;SDS011;63804;53.120;8.764;2023-07-09T13:21:22;7.97;;;4.82;;
54919;SDS011;63804;53.120;8.764;2023-07-09T13:23:50;7.57;;;4.35;;
54919;SDS011;63804;53.120;8.764;2023-07-09T13:26:19;7.45;;;5.00;;
54919;SDS011;63804;53.120;8.764;2023-07-09T13:28:47;10.88;;;5.20;;
54919;SDS011;63804;53.120;8.764;2023-07-09T13:31:18;8.90;;;5.18;;
54919;SDS011;63804;53.120;8.764;2023-07-09T13:33:52;7.75;;;4.97;;
54919;SDS011;63804;53.120;8.764;2023-07-09T13:36:22;9.23;;;5.55;;
54919;SDS011;63804;53.120;8.764;2023-07-09T13:38:49;8.00;;;5.13;;
54919;SDS011;63804;53.120;8.764;2023-07-09T13:41:18;9.07;;;5.55;;
54919;SDS011;63804;53.120;8.764;2023-07-09T13:43:49;8.13;;;5.43;;
54919;SDS011;63804;53.120;8.764;2023-07-09T13:46:16;9.23;;;5.75;;
54919;SDS011;63804;53.120;8.764;2023-07-09T13:48:44;9.68;;;6.20;;
54919;SDS011;63804;53.120;8.764;2023-07-09T13:51:20;10.00;;;5.13;;
54919;SDS011;63804;53.120;8.764;2023-07-09T13:53:50;9.75;;;5.45;;
54919;SDS011;63804;53.120;8.764;2023-07-09T13:56:20;8.15;;;5.10;;
54919;SDS011;63804;53.120;8.764;2023-07-09T13:58:47;9.05;;;4.97;;
54919;SDS011;63804;53.120;8.764;2023-07-09T14:01:18;8.40;;;4.95;;
54919;SDS011;63804;53.120;8.764;2023-07-09T14:03:48;8.95;;;5.00;;
54919;SDS011;63804;53.120;8.764;2023-07-09T14:06:17;8.90;;;4.93;;
54919;SDS011;63804;53.120;8.764;2023-07-09T14:08:45;9.15;;;4.90;;
54919;SDS011;63804;53.120;8.764;2023-07-09T14:11:13;9.23;;;5.18;;
54919;SDS011;63804;53.120;8.764;2023-07-09T14:13:43;10.60;;;4.70;;
54919;SDS011;63804;53.120;8.764;2023-07-09T14:16:11;7.90;;;4.97;;
54919;SDS011;63804;53.120;8.764;2023-07-09T14:18:39;8.20;;;4.60;;
54919;SDS011;63804;53.120;8.764;2023-07-09T14:21:13;9.80;;;4.93;;
54919;SDS011;63804;53.120;8.764;2023-07-09T14:23:43;9.23;;;5.05;;
54919;SDS011;63804;53.120;8.764;2023-07-09T14:26:11;8.27;;;5.00;;
54919;SDS011;63804;53.120;8.764;2023-07-09T14:28:38;9.43;;;5.53;;
54919;SDS011;63804;53.120;8.764;2023-07-09T14:33:54;9.00;;;4.72;;
54919;SDS011;63804;53.120;8.764;2023-07-09T14:36:31;8.05;;;4.85;;
54919;SDS011;63804;53.120;8.764;2023-07-09T14:38:59;7.85;;;4.85;;
54919;SDS011;63804;53.120;8.764;2023-07-09T14:41:26;9.40;;;4.93;;
54919;SDS011;63804;53.120;8.764;2023-07-09T14:43:54;9.23;;;5.15;;
54919;SDS011;63804;53.120;8.764;2023-07-09T14:46:25;9.77;;;4.78;;
54919;SDS011;63804;53.120;8.764;2023-07-09T14:48:52;11.02;;;5.13;;
54919;SDS011;63804;53.120;8.764;2023-07-09T14:51:19;9.93;;;5.05;;
54919;SDS011;63804;53.120;8.764;2023-07-09T14:53:47;9.43;;;4.82;;
54919;SDS011;63804;53.120;8.764;2023-07-09T14:56:14;9.77;;;4.88;;
54919;SDS011;63804;53.120;8.764;2023-07-09T14:58:41;8.98;;;4.90;;
54919;SDS011;63804;53.120;8.764;2023-07-09T15:01:10;9.52;;;5.00;;
54919;SDS011;63804;53.120;8.764;2023-07-09T15:03:40;10.90;;;5.55;;
54919;SDS011;63804;53.120;8.764;2023-07-09T15:06:07;12.02;;;5.32;;
54919;SDS011;63804;53.120;8.764;2023-07-09T15:08:35;8.82;;;5.55;;
54919;SDS011;63804;53.120;8.764;2023-07-09T15:11:02;9.13;;;5.60;;
54919;SDS011;63804;53.120;8.764;2023-07-09T15:13:31;12.60;;;5.40;;
54919;SDS011;63804;53.120;8.764;2023-07-09T15:16:00;7.75;;;4.68;;
54919;SDS011;63804;53.120;8.764;2023-07-09T15:18:29;9.00;;;5.40;;
54919;SDS011;63804;53.120;8.764;2023-07-09T15:20:57;10.70;;;5.22;;
54919;SDS011;63804;53.120;8.764;2023-07-09T15:23:25;8.38;;;4.65;;
54919;SDS011;63804;53.120;8.764;2023-07-09T15:25:54;8.27;;;4.53;;
54919;SDS011;63804;53.120;8.764;2023-07-09T15:28:22;10.57;;;5.53;;
54919;SDS011;63804;53.120;8.764;2023-07-09T15:30:49;9.00;;;5.40;;
54919;SDS011;63804;53.120;8.764;2023-07-09T15:33:17;9.18;;;5.07;;
54919;SDS011;63804;53.120;8.764;2023-07-09T15:35:46;9.63;;;5.20;;
54919;SDS011;63804;53.120;8.764;2023-07-09T15:40:46;9.77;;;5.20;;
54919;SDS011;63804;53.120;8.764;2023-07-09T15:43:15;8.23;;;5.40;;
54919;SDS011;63804;53.120;8.764;2023-07-09T15:45:45;10.43;;;5.75;;
54919;SDS011;63804;53.120;8.764;2023-07-09T15:50:59;8.05;;;4.95;;
54919;SDS011;63804;53.120;8.764;2023-07-09T15:53:31;8.15;;;5.05;;
54919;SDS011;63804;53.120;8.764;2023-07-09T15:55:59;8.35;;;4.72;;